Time;durP1;ratioP1;P1;durP2;ratioP2;P2;SDS_P1;SDS_P2;PMS_P1;PMS_P2;Temp;Humidity;BMP_temperature;BMP_pressure;BME280_temperature;BME280_humidity;BME280_pressure;Samples;Min_cycle;Max_cycle;Signal;HPM_P1;HPM_P2
2022/12/11 00:03:48;;;;;;;4.40;2.85;;;;;;;22.97;35.19;102646.81;20831415;28;20088;-63
2022/12/11 00:13:55;;;;;;;7.80;3.00;;;;;;;22.96;35.27;102653.50;20833964;28;20455;-62
2022/12/11 00:23:56;;;;;;;6.07;2.47;;;;;;;23.08;35.10;102689.69;20835115;28;20048;-61
2022/12/11 00:33:57;;;;;;;3.40;2.15;;;;;;;23.10;34.83;102698.69;20835680;28;20099;-62
2022/12/11 00:43:59;;;;;;;8.20;2.53;;;;;;;23.10;35.05;102695.88;20834180;28;20046;-62
2022/12/11 00:54:00;;;;;;;4.60;2.40;;;;;;;23.10;35.39;102695.88;20830043;28;20041;-62
2022/12/11 01:04:02;;;;;;;4.25;1.98;;;;;;;23.11;35.63;102692.00;20834268;28;20046;-62
2022/12/11 01:14:04;;;;;;;9.13;2.20;;;;;;;22.99;35.59;102664.13;20832739;28;20160;-63
2022/12/11 01:24:05;;;;;;;4.43;1.90;;;;;;;23.09;36.13;102683.00;20831614;28;20107;-62
2022/12/11 01:34:09;;;;;;;4.97;1.88;;;;;;;23.13;35.82;102666.59;20816979;28;20091;-63
2022/12/11 01:44:13;;;;;;;5.45;1.92;;;;;;;23.13;35.96;102700.09;20826582;28;20520;-63
2022/12/11 01:54:17;;;;;;;6.35;1.58;;;;;;;23.15;35.79;102698.75;20826917;28;20045;-62
2022/12/11 02:04:19;;;;;;;5.00;1.80;;;;;;;23.16;35.98;102678.09;20826072;28;20037;-64
2022/12/11 02:14:41;;;;;;;6.47;1.70;;;;;;;22.98;35.75;102647.66;20828535;28;20029;-64
2022/12/11 02:25:02;;;;;;;10.63;2.35;;;;;;;23.17;36.24;102662.19;20811310;28;20444;-63
2022/12/11 02:35:10;;;;;;;10.30;2.08;;;;;;;23.16;35.84;102658.56;20823221;28;20049;-64
2022/12/11 02:45:13;;;;;;;6.60;2.00;;;;;;;23.16;35.93;102633.41;20815080;28;20029;-62
2022/12/11 02:55:16;;;;;;;31.42;3.85;;;;;;;23.16;35.67;102616.66;20816829;28;20042;-64
2022/12/11 03:05:17;;;;;;;21.58;2.85;;;;;;;23.15;35.53;102630.91;20821384;28;20076;-63
2022/12/11 03:15:30;;;;;;;8.75;2.17;;;;;;;23.05;35.40;102637.16;20819096;28;20049;-63
2022/12/11 03:26:05;;;;;;;12.13;2.38;;;;;;;22.87;35.69;102609.47;20815324;28;20370;-62
2022/12/11 03:36:21;;;;;;;10.55;1.88;;;;;;;22.91;35.09;102596.72;20806953;28;20049;-63
2022/12/11 03:46:28;;;;;;;7.18;1.60;;;;;;;22.79;34.86;102578.09;20810270;28;20038;-62
2022/12/11 03:56:34;;;;;;;6.20;1.80;;;;;;;23.00;34.99;102606.34;20814354;28;20464;-63
2022/12/11 04:06:38;;;;;;;3.70;1.67;;;;;;;22.88;34.67;102566.50;20816781;28;20091;-63
2022/12/11 04:16:39;;;;;;;7.00;1.60;;;;;;;23.09;35.12;102604.81;20813322;28;20041;-64
2022/12/11 04:26:43;;;;;;;3.47;1.45;;;;;;;23.09;34.97;102588.06;20822780;28;20480;-63
2022/12/11 04:36:47;;;;;;;2.65;1.30;;;;;;;23.12;34.75;102636.97;20822871;28;20404;-63
2022/12/11 04:46:48;;;;;;;5.28;1.30;;;;;;;23.11;34.99;102630.56;20815543;28;20041;-63
2022/12/11 04:56:50;;;;;;;4.15;1.23;;;;;;;23.10;34.94;102592.56;20827403;28;20045;-63
2022/12/11 05:07:04;;;;;;;1.65;1.20;;;;;;;23.13;34.76;102593.97;20830346;28;20076;-63
2022/12/11 05:17:05;;;;;;;3.78;1.20;;;;;;;23.16;34.81;102596.28;20836041;28;20481;-64
2022/12/11 05:27:07;;;;;;;2.17;0.90;;;;;;;23.13;35.01;102580.88;20831103;28;20044;-63
2022/12/11 05:37:09;;;;;;;14.60;1.27;;;;;;;23.16;34.75;102608.28;20812478;28;20054;-63
2022/12/11 05:47:10;;;;;;;2.35;1.60;;;;;;;23.15;34.88;102609.41;20804101;28;20042;-62
2022/12/11 05:57:11;;;;;;;3.72;1.23;;;;;;;23.15;34.80;102598.22;20816457;28;20096;-62
2022/12/11 06:07:13;;;;;;;1.38;0.93;;;;;;;23.13;34.88;102592.03;20832027;28;20122;-63
2022/12/11 06:17:14;;;;;;;4.93;1.30;;;;;;;23.10;34.91;102584.19;20827659;28;20037;-63
2022/12/11 06:27:18;;;;;;;3.38;1.38;;;;;;;23.06;34.94;102574.63;20828913;28;21129;-63
2022/12/11 06:37:19;;;;;;;2.40;1.10;;;;;;;23.07;34.93;102570.72;20791961;28;20041;-62
2022/12/11 06:47:20;;;;;;;2.25;1.30;;;;;;;23.03;35.15;102561.19;20828261;28;20459;-63
2022/12/11 06:57:22;;;;;;;1.92;1.10;;;;;;;23.02;34.94;102587.41;20817853;28;20079;-63
2022/12/11 07:07:23;;;;;;;1.95;0.80;;;;;;;22.99;35.13;102563.63;20827312;28;20444;-61
2022/12/11 07:17:28;;;;;;;2.70;0.80;;;;;;;22.98;35.10;102541.56;20826676;28;20103;-61
2022/12/11 07:27:29;;;;;;;1.33;0.80;;;;;;;22.95;35.23;102542.06;20826198;28;20037;-61
2022/12/11 07:37:38;;;;;;;1.90;0.88;;;;;;;22.93;35.30;102577.78;20819447;28;20559;-62
2022/12/11 07:47:39;;;;;;;1.85;1.00;;;;;;;22.87;35.32;102534.94;20790189;28;20404;-62
2022/12/11 07:57:41;;;;;;;1.25;0.65;;;;;;;22.83;35.11;102523.44;20828446;28;20049;-62
2022/12/11 08:07:42;;;;;;;1.85;0.80;;;;;;;22.80;35.28;102529.53;20839153;28;20049;-63
2022/12/11 08:17:44;;;;;;;1.77;0.93;;;;;;;22.77;35.44;102530.06;20837463;28;20045;-62
2022/12/11 08:27:45;;;;;;;2.95;0.93;;;;;;;22.73;35.56;102498.19;20838106;28;20088;-62
2022/12/11 08:37:46;;;;;;;1.00;0.80;;;;;;;22.66;35.37;102494.72;20838547;28;20068;-62
2022/12/11 08:47:48;;;;;;;0.80;0.80;;;;;;;22.69;35.24;102497.00;20838311;28;20045;-61
2022/12/11 08:57:49;;;;;;;1.38;0.93;;;;;;;22.70;35.43;102470.78;20836350;28;20459;-61
2022/12/11 09:07:53;;;;;;;2.40;1.20;;;;;;;22.66;35.24;102465.97;20831452;28;20435;-61
2022/12/11 09:17:58;;;;;;;1.35;0.88;;;;;;;22.64;34.95;102491.34;20834008;28;20041;-61
2022/12/11 09:28:02;;;;;;;1.52;0.70;;;;;;;22.65;34.80;102509.78;20814729;28;20057;-61
2022/12/11 09:38:05;;;;;;;1.45;0.90;;;;;;;22.67;35.25;102501.97;20829822;28;20166;-62
2022/12/11 09:48:10;;;;;;;0.90;0.73;;;;;;;22.68;35.05;102456.25;20830771;28;20038;-61
2022/12/11 09:58:55;;;;;;;1.33;0.90;;;;;;;22.66;35.39;102422.16;20825287;28;20053;-61
2022/12/11 10:09:41;;;;;;;1.80;0.88;;;;;;;22.62;35.47;102428.50;20823582;28;20038;-62
2022/12/11 10:19:43;;;;;;;0.98;0.70;;;;;;;22.69;35.29;102420.81;20620313;28;20045;-62
2022/12/11 10:29:51;;;;;;;1.20;0.65;;;;;;;22.62;35.18;102414.56;20817314;28;20041;-62
2022/12/11 10:39:53;;;;;;;0.90;0.70;;;;;;;22.69;35.22;102426.41;20829022;28;20455;-62
2022/12/11 10:49:59;;;;;;;1.25;0.88;;;;;;;22.69;35.46;102410.50;20827668;28;20049;-62
2022/12/11 11:00:04;;;;;;;1.60;0.98;;;;;;;22.70;35.06;102384.28;20827587;28;20041;-62
2022/12/11 11:10:11;;;;;;;1.58;0.70;;;;;;;22.67;35.29;102409.06;20826623;28;20041;-62
2022/12/11 11:20:16;;;;;;;0.95;0.70;;;;;;;22.65;35.34;102408.47;20825975;28;20049;-62
2022/12/11 11:30:30;;;;;;;1.40;0.70;;;;;;;22.62;35.56;102423.78;20823338;28;20102;-63
2022/12/11 11:40:52;;;;;;;1.13;0.60;;;;;;;22.61;35.37;102385.81;20841165;28;20041;-61
2022/12/11 11:50:56;;;;;;;1.90;0.60;;;;;;;22.57;35.34;102356.75;20828749;28;20482;-63
2022/12/11 12:00:58;;;;;;;1.45;0.60;;;;;;;22.55;35.52;102347.81;20805813;28;20093;-62
2022/12/11 12:11:08;;;;;;;1.27;0.60;;;;;;;22.56;35.41;102346.69;20840508;28;20422;-63
2022/12/11 12:21:15;;;;;;;1.15;0.85;;;;;;;22.53;35.34;102333.25;20839600;28;20110;-63
2022/12/11 12:31:37;;;;;;;1.80;0.63;;;;;;;22.49;35.66;102326.50;20838433;28;20080;-62
2022/12/11 12:41:55;;;;;;;1.65;0.75;;;;;;;22.46;35.39;102321.47;20803837;28;20038;-63
2022/12/11 12:51:57;;;;;;;0.93;0.77;;;;;;;22.47;35.55;102342.66;20825435;28;20396;-63
2022/12/11 13:02:01;;;;;;;0.47;0.40;;;;;;;22.45;35.65;102336.47;20813249;28;20053;-63
2022/12/11 13:12:12;;;;;;;1.08;0.60;;;;;;;22.40;35.47;102333.63;20795109;28;20447;-64
2022/12/11 13:22:14;;;;;;;1.52;0.90;;;;;;;22.41;35.47;102336.19;20785744;28;20041;-62
2022/12/11 13:32:15;;;;;;;0.52;0.50;;;;;;;22.42;35.43;102345.38;20798574;28;20045;-62
2022/12/11 13:42:28;;;;;;;0.77;0.70;;;;;;;22.38;35.54;102333.06;20784645;28;20362;-62
2022/12/11 13:52:30;;;;;;;1.38;0.82;;;;;;;22.39;35.22;102315.22;20793698;28;20484;-63
2022/12/11 14:02:37;;;;;;;1.40;0.80;;;;;;;22.35;35.20;102298.16;20807739;28;20049;-63
2022/12/11 14:13:02;;;;;;;1.48;0.80;;;;;;;22.42;35.32;102298.81;20816015;28;20119;-61
2022/12/11 14:23:22;;;;;;;1.73;0.82;;;;;;;22.37;35.33;102306.28;20814155;28;20037;-62
2022/12/11 14:33:30;;;;;;;1.70;1.08;;;;;;;22.46;35.51;102288.81;20828884;28;20111;-62
2022/12/11 14:43:34;;;;;;;;;;;;;;;22.48;35.61;102274.63;20828566;28;20072;-62
2022/12/11 14:53:40;;;;;;;26.35;2.65;;;;;;;22.54;35.18;102254.03;20828012;28;19917;-61
2022/12/11 15:03:42;;;;;;;7.57;1.23;;;;;;;22.51;35.66;102257.38;20827162;28;20045;-62
2022/12/11 15:13:58;;;;;;;9.23;1.20;;;;;;;22.31;35.55;102246.78;20825917;28;20041;-61
2022/12/11 15:24:03;;;;;;;7.75;1.02;;;;;;;22.49;35.14;102240.88;20824293;28;20049;-62
2022/12/11 15:34:21;;;;;;;22.90;1.73;;;;;;;22.47;35.46;102222.72;20811303;28;20046;-62
2022/12/11 15:44:25;;;;;;;8.13;1.50;;;;;;;22.49;35.46;102193.44;20824105;28;20038;-63
2022/12/11 15:54:27;;;;;;;10.77;1.40;;;;;;;22.46;35.47;102166.09;20827456;28;20095;-64
2022/12/11 16:04:28;;;;;;;7.88;0.95;;;;;;;22.45;35.38;102138.44;20833558;28;20045;-63
2022/12/11 16:14:30;;;;;;;3.15;0.93;;;;;;;22.44;35.47;102118.09;20827198;28;20029;-64
2022/12/11 16:24:32;;;;;;;7.45;1.30;;;;;;;22.42;35.41;102108.31;20837934;28;20068;-61
2022/12/11 16:34:37;;;;;;;4.65;1.10;;;;;;;22.37;35.41;102061.69;20840150;28;20411;-63
2022/12/11 16:44:38;;;;;;;4.25;1.00;;;;;;;22.34;35.43;102039.91;20838467;28;20087;-63
2022/12/11 16:54:42;;;;;;;6.28;1.02;;;;;;;22.36;35.50;102028.47;20836614;28;20108;-61
2022/12/11 17:04:47;;;;;;;3.03;1.15;;;;;;;22.20;35.75;102007.97;20836842;28;20037;-64
2022/12/11 17:14:48;;;;;;;2.90;1.40;;;;;;;22.30;35.49;102022.84;20835888;28;20046;-63
2022/12/11 17:24:50;;;;;;;3.10;0.88;;;;;;;22.28;35.29;101997.19;20835225;28;20049;-63
2022/12/11 17:34:54;;;;;;;2.85;0.80;;;;;;;22.16;35.34;101931.56;20833879;28;20041;-62
2022/12/11 17:44:58;;;;;;;4.38;1.20;;;;;;;22.25;35.43;101941.94;20834032;28;20041;-63
2022/12/11 17:54:59;;;;;;;1.98;0.93;;;;;;;22.23;35.38;101921.88;20832279;28;20103;-63
2022/12/11 18:05:03;;;;;;;2.00;0.90;;;;;;;22.19;35.26;101903.16;20832598;28;20076;-63
2022/12/11 18:15:06;;;;;;;2.00;1.10;;;;;;;22.16;35.40;101873.84;20831479;28;20037;-63
2022/12/11 18:25:10;;;;;;;1.42;0.88;;;;;;;22.15;35.55;101858.25;20828834;28;20053;-62
2022/12/11 18:35:11;;;;;;;1.77;0.98;;;;;;;22.16;35.05;101854.34;20829172;28;20038;-63
2022/12/11 18:45:13;;;;;;;1.20;0.80;;;;;;;22.14;35.15;101878.03;20828829;28;20453;-64
2022/12/11 18:55:14;;;;;;;1.77;1.10;;;;;;;22.13;35.33;101859.59;20827096;28;20094;-63
2022/12/11 19:05:15;;;;;;;2.45;1.20;;;;;;;22.19;35.29;101875.28;20827967;28;20084;-63
2022/12/11 19:15:17;;;;;;;1.73;0.70;;;;;;;22.17;35.47;101844.84;20825837;28;20041;-63
2022/12/11 19:25:18;;;;;;;4.25;1.08;;;;;;;22.17;35.39;101830.91;20826615;28;20061;-62
2022/12/11 19:35:23;;;;;;;1.70;0.85;;;;;;;22.21;35.53;101853.53;20826094;28;20053;-63
2022/12/11 19:45:24;;;;;;;2.78;1.00;;;;;;;22.21;35.27;101829.28;20826321;28;20037;-64
2022/12/11 19:55:26;;;;;;;1.20;0.77;;;;;;;22.22;35.71;101824.53;20833714;28;20095;-63
2022/12/11 20:05:27;;;;;;;0.95;0.73;;;;;;;22.10;35.48;101805.22;20842031;28;20029;-64
2022/12/11 20:15:30;;;;;;;1.58;0.70;;;;;;;22.21;35.53;101828.44;20840513;28;20088;-63
2022/12/11 20:25:37;;;;;;;0.95;0.60;;;;;;;22.21;35.82;101820.06;20839441;28;20057;-63
2022/12/11 20:35:39;;;;;;;2.08;1.05;;;;;;;22.18;35.63;101793.59;20838545;28;20050;-64
2022/12/11 20:45:47;;;;;;;0.73;0.70;;;;;;;22.04;35.58;101761.69;20837897;28;20057;-63
2022/12/11 20:55:48;;;;;;;3.20;1.27;;;;;;;22.19;35.46;101786.91;20837301;28;20115;-64
2022/12/11 21:05:49;;;;;;;1.35;0.85;;;;;;;22.19;35.45;101775.75;20835848;28;20034;-65
2022/12/11 21:15:55;;;;;;;1.15;0.90;;;;;;;22.19;35.66;101775.75;20835532;28;20103;-63
2022/12/11 21:25:56;;;;;;;1.00;0.80;;;;;;;22.18;35.55;101778.81;20834353;28;20114;-63
2022/12/11 21:35:58;;;;;;;1.95;1.08;;;;;;;22.17;35.49;101786.31;20831565;28;20072;-61
2022/12/11 21:46:00;;;;;;;1.20;0.73;;;;;;;22.15;35.76;101776.56;20830940;28;20037;-62
2022/12/11 21:56:08;;;;;;;1.73;0.90;;;;;;;21.95;35.64;101754.94;20822980;28;20099;-61
2022/12/11 22:06:09;;;;;;;5.57;1.27;;;;;;;22.12;36.00;101769.56;20853397;28;20042;-62
2022/12/11 22:16:11;;;;;;;2.25;1.02;;;;;;;22.11;35.92;101772.59;20835643;28;20044;-62
2022/12/11 22:26:24;;;;;;;1.80;1.10;;;;;;;22.08;35.88;101760.88;20828480;28;20388;-62
2022/12/11 22:36:26;;;;;;;2.40;1.30;;;;;;;22.07;35.80;101752.78;20820781;28;20037;-60
2022/12/11 22:46:31;;;;;;;2.75;1.13;;;;;;;22.07;36.54;101755.56;20822991;28;20578;-60
2022/12/11 22:56:36;;;;;;;3.28;0.65;;;;;;;21.13;36.70;101606.72;20823633;28;20345;-63
2022/12/11 23:06:37;;;;;;;3.38;1.45;;;;;;;22.00;37.09;101727.09;20825792;28;20107;-62
2022/12/11 23:16:39;;;;;;;2.35;1.33;;;;;;;22.13;37.28;101748.97;20826331;28;20488;-61
2022/12/11 23:26:40;;;;;;;4.03;1.38;;;;;;;22.15;37.19;101763.47;20836884;28;20144;-62
2022/12/11 23:36:44;;;;;;;11.40;1.55;;;;;;;22.19;37.48;101755.41;20825605;28;20038;-64
2022/12/11 23:46:46;;;;;;;5.57;1.55;;;;;;;22.19;37.39;101755.41;20844724;28;20056;-67
2022/12/11 23:56:47;;;;;;;2.78;1.30;;;;;;;22.23;36.92;101754.59;20845137;28;20049;-66
